Time;durP1;ratioP1;P1;durP2;ratioP2;P2;SDS_P1;SDS_P2;PMS_P1;PMS_P2;Temp;Humidity;BMP_temperature;BMP_pressure;BME280_temperature;BME280_humidity;BME280_pressure;Samples;Min_cycle;Max_cycle;Signal;HPM_P1;HPM_P2
2021/07/15 00:00:33;;;;;;;25.70;11.52;;;;;;;17.69;100.00;101507.34;5072395;28;20136;-58
2021/07/15 00:03:04;;;;;;;24.15;11.18;;;;;;;17.70;100.00;101503.38;5071828;28;20051;-58
2021/07/15 00:05:33;;;;;;;23.38;10.63;;;;;;;17.70;100.00;101503.38;5072465;28;20070;-57
2021/07/15 00:08:02;;;;;;;21.63;10.13;;;;;;;17.70;100.00;101509.03;5072179;28;20143;-55
2021/07/15 00:10:33;;;;;;;26.33;10.70;;;;;;;17.69;100.00;101502.53;5071757;28;20467;-60
2021/07/15 00:13:04;;;;;;;21.85;10.55;;;;;;;17.68;100.00;101506.53;5071991;28;20453;-56
2021/07/15 00:15:35;;;;;;;22.23;10.30;;;;;;;17.67;100.00;101509.69;5072177;28;20045;-56
2021/07/15 00:18:06;;;;;;;21.08;10.48;;;;;;;17.66;100.00;101513.66;5060746;28;20128;-53
2021/07/15 00:20:36;;;;;;;23.40;10.43;;;;;;;17.66;100.00;101508.00;5061486;28;20041;-58
2021/07/15 00:23:04;;;;;;;23.50;10.77;;;;;;;17.66;100.00;101517.31;5071902;28;20290;-56
2021/07/15 00:25:32;;;;;;;20.30;10.48;;;;;;;17.67;100.00;101506.84;5071463;28;20111;-55
2021/07/15 00:28:01;;;;;;;21.00;9.82;;;;;;;17.67;100.00;101507.69;5071571;28;20155;-56
2021/07/15 00:30:29;;;;;;;22.48;10.75;;;;;;;17.67;100.00;101507.69;5072149;28;20123;-54
2021/07/15 00:32:57;;;;;;;20.48;9.85;;;;;;;17.67;100.00;101493.56;5070247;28;20040;-55
2021/07/15 00:35:25;;;;;;;17.45;9.60;;;;;;;17.66;100.00;101497.56;5071835;28;20120;-55
2021/07/15 00:37:53;;;;;;;18.80;10.07;;;;;;;17.65;100.00;101495.91;5071574;28;20045;-55
2021/07/15 00:40:21;;;;;;;18.60;9.52;;;;;;;17.65;100.00;101509.19;5070898;28;20497;-58
2021/07/15 00:42:49;;;;;;;17.98;9.88;;;;;;;17.66;100.00;101508.84;5071434;28;20151;-58
2021/07/15 00:45:18;;;;;;;22.52;9.95;;;;;;;17.65;100.00;101510.00;5067276;28;20032;-56
2021/07/15 00:47:46;;;;;;;20.60;9.82;;;;;;;17.65;100.00;101507.19;5066510;28;20048;-54
2021/07/15 00:50:17;;;;;;;16.33;10.10;;;;;;;17.66;100.00;101506.03;5071292;28;20058;-57
2021/07/15 00:52:45;;;;;;;16.08;9.40;;;;;;;17.64;100.00;101502.69;5070855;28;20143;-57
2021/07/15 00:55:18;;;;;;;23.85;9.80;;;;;;;17.64;100.00;101515.94;5069823;28;20048;-58
2021/07/15 00:57:46;;;;;;;19.42;9.88;;;;;;;17.63;100.00;101514.28;5071425;28;20131;-56
2021/07/15 01:00:16;;;;;;;22.05;9.80;;;;;;;17.63;100.00;101522.75;5070815;28;20075;-54
2021/07/15 01:02:45;;;;;;;21.92;10.20;;;;;;;17.64;100.00;101527.25;5071225;28;20409;-55
2021/07/15 01:05:17;;;;;;;20.10;9.35;;;;;;;17.63;100.00;101534.03;5071221;28;20063;-50
2021/07/15 01:07:45;;;;;;;;;;;;;;;17.51;100.00;101521.44;5071078;28;20543;-54
2021/07/15 01:10:16;;;;;;;21.67;10.55;;;;;;;17.50;100.00;101533.88;5071317;28;20011;-59
2021/07/15 01:13:04;;;;;;;20.58;10.25;;;;;;;17.53;100.00;101527.56;5071227;28;20080;-59
2021/07/15 01:15:39;;;;;;;22.20;11.35;;;;;;;17.51;100.00;101527.06;5070385;28;20564;-57
2021/07/15 01:18:15;;;;;;;19.23;10.05;;;;;;;17.51;100.00;101524.25;5070566;28;20071;-55
2021/07/15 01:21:22;;;;;;;16.95;10.70;;;;;;;17.49;100.00;101520.09;5070618;28;20051;-51
2021/07/15 01:24:22;;;;;;;20.73;11.30;;;;;;;17.45;100.00;101525.56;5071098;28;20052;-53
2021/07/15 01:27:03;;;;;;;23.73;10.77;;;;;;;17.43;100.00;101533.53;5068661;28;20560;-55
2021/07/15 01:29:52;;;;;;;22.38;10.70;;;;;;;17.45;100.00;101533.19;5070514;28;20074;-53
2021/07/15 01:32:26;;;;;;;22.23;11.57;;;;;;;17.45;100.00;101528.38;5071268;28;20088;-51
2021/07/15 01:34:57;;;;;;;22.75;11.02;;;;;;;17.46;100.00;101518.75;5070191;28;20075;-60
2021/07/15 01:37:25;;;;;;;21.43;11.57;;;;;;;17.46;100.00;101526.38;5070904;28;20054;-54
2021/07/15 01:39:55;;;;;;;18.70;10.15;;;;;;;17.48;100.00;101535.34;5070941;28;20313;-58
2021/07/15 01:42:23;;;;;;;24.63;11.13;;;;;;;17.49;100.00;101537.84;5070125;28;20148;-53
2021/07/15 01:44:51;;;;;;;26.48;12.48;;;;;;;17.51;100.00;101526.25;5070951;28;20041;-56
2021/07/15 01:47:21;;;;;;;24.67;10.85;;;;;;;17.51;100.00;101532.72;5066961;28;20054;-57
2021/07/15 01:49:50;;;;;;;22.30;10.50;;;;;;;17.50;100.00;101531.06;5065044;28;20466;-53
2021/07/15 01:52:18;;;;;;;22.63;10.38;;;;;;;17.51;100.00;101529.91;5070907;28;20050;-57
2021/07/15 01:54:50;;;;;;;21.42;9.73;;;;;;;17.48;100.00;101532.53;5070571;28;20048;-55
2021/07/15 01:57:20;;;;;;;18.20;9.55;;;;;;;17.46;100.00;101538.50;5069016;28;20147;-53
2021/07/15 01:59:50;;;;;;;22.55;10.82;;;;;;;17.45;100.00;101521.91;5070695;28;20074;-58
2021/07/15 02:02:20;;;;;;;20.98;10.15;;;;;;;17.45;100.00;101519.91;5070918;28;20105;-60
2021/07/15 02:04:55;;;;;;;19.52;9.48;;;;;;;17.44;100.00;101521.06;5070791;28;20053;-57
2021/07/15 02:07:25;;;;;;;21.45;9.25;;;;;;;17.44;100.00;101521.06;5070503;28;20426;-57
2021/07/15 02:09:54;;;;;;;19.48;8.80;;;;;;;17.45;100.00;101524.72;5069918;28;20041;-56
2021/07/15 02:12:23;;;;;;;21.58;9.02;;;;;;;17.43;100.00;101525.06;5070432;28;20113;-59
2021/07/15 02:14:53;;;;;;;24.30;9.57;;;;;;;17.43;100.00;101522.22;5070614;28;20056;-57
2021/07/15 02:17:24;;;;;;;25.23;9.07;;;;;;;17.42;100.00;101516.91;5069993;28;20098;-54
2021/07/15 02:19:56;;;;;;;19.55;9.25;;;;;;;17.39;100.00;101526.88;5070735;28;20075;-55
2021/07/15 02:22:24;;;;;;;18.83;8.80;;;;;;;17.34;100.00;101521.41;5070279;28;20072;-58
2021/07/15 02:24:52;;;;;;;16.70;9.43;;;;;;;17.32;100.00;101528.53;5069881;28;20079;-51
2021/07/15 02:27:21;;;;;;;24.55;11.60;;;;;;;17.31;100.00;101527.69;5059535;28;20052;-57
2021/07/15 02:29:49;;;;;;;24.15;10.02;;;;;;;17.32;100.00;101531.34;5071231;28;20048;-58
2021/07/15 02:32:17;;;;;;;26.50;9.13;;;;;;;17.30;100.00;101533.66;5074000;28;20084;-56
2021/07/15 02:34:51;;;;;;;25.50;9.40;;;;;;;17.30;100.00;101533.66;5074057;28;20497;-57
2021/07/15 02:37:25;;;;;;;28.45;9.30;;;;;;;17.30;100.00;101528.03;5071208;28;20514;-59
2021/07/15 02:39:53;;;;;;;23.20;9.45;;;;;;;17.31;100.00;101532.50;5071234;28;20515;-57
2021/07/15 02:42:21;;;;;;;21.60;9.50;;;;;;;17.31;100.00;101533.34;5073897;28;20082;-54
2021/07/15 02:44:50;;;;;;;28.85;9.98;;;;;;;17.30;100.00;101528.84;5073471;28;20048;-59
2021/07/15 02:47:18;;;;;;;21.25;8.90;;;;;;;17.32;100.00;101525.72;5073857;28;20079;-53
2021/07/15 02:49:46;;;;;;;29.85;10.73;;;;;;;17.33;100.00;101521.72;5073452;28;20123;-53
2021/07/15 02:52:14;;;;;;;30.52;10.48;;;;;;;17.33;100.00;101518.91;5073116;28;20048;-58
2021/07/15 02:54:43;;;;;;;25.75;9.80;;;;;;;17.32;100.00;101514.41;5073689;28;20496;-53
2021/07/15 02:57:24;;;;;;;21.88;9.80;;;;;;;17.30;100.00;101517.56;5073642;28;20448;-56
2021/07/15 02:59:56;;;;;;;27.27;11.65;;;;;;;17.27;100.00;101511.75;5070358;28;20048;-53
2021/07/15 03:02:28;;;;;;;20.30;10.15;;;;;;;17.26;100.00;101510.91;5073510;28;20502;-61
2021/07/15 03:05:01;;;;;;;21.15;9.00;;;;;;;17.23;100.00;101511.56;5070272;28;20045;-52
2021/07/15 03:07:31;;;;;;;20.58;8.30;;;;;;;17.22;100.00;101507.09;5068951;28;20044;-54
2021/07/15 03:10:02;;;;;;;20.00;8.02;;;;;;;17.21;100.00;101517.53;5073342;28;20047;-53
2021/07/15 03:12:34;;;;;;;18.85;7.75;;;;;;;17.20;100.00;101517.88;5073429;28;20139;-56
2021/07/15 03:15:02;;;;;;;;;;;;;;;17.08;100.00;101515.69;5073089;28;20051;-58
2021/07/15 03:17:33;;;;;;;27.75;8.35;;;;;;;17.09;100.00;101510.88;5073433;28;20007;-52
2021/07/15 03:20:07;;;;;;;22.03;8.30;;;;;;;17.13;100.00;101517.53;5072900;28;20076;-56
2021/07/15 03:22:37;;;;;;;22.60;7.63;;;;;;;17.18;100.00;101514.56;5073163;28;20485;-56
2021/07/15 03:25:10;;;;;;;17.75;7.05;;;;;;;17.20;100.00;101526.31;5072942;28;20053;-54
2021/07/15 03:27:42;;;;;;;20.30;7.45;;;;;;;17.21;100.00;101517.53;5073064;28;20106;-55
2021/07/15 03:30:13;;;;;;;20.10;8.50;;;;;;;17.23;100.00;101511.56;5072847;28;20156;-58
2021/07/15 03:32:45;;;;;;;21.15;8.02;;;;;;;17.24;100.00;101524.53;5072984;28;20048;-56
2021/07/15 03:35:14;;;;;;;;;;;;;;;17.14;100.00;101522.03;5072763;28;20041;-53
2021/07/15 03:37:45;;;;;;;21.05;7.47;;;;;;;17.13;100.00;101524.00;5072763;28;19974;-52
2021/07/15 03:40:17;;;;;;;17.52;7.25;;;;;;;17.19;100.00;101528.31;5072604;28;20100;-57
2021/07/15 03:42:46;;;;;;;19.38;6.80;;;;;;;17.21;100.00;101533.63;5072399;28;20048;-56
2021/07/15 03:45:15;;;;;;;18.15;7.43;;;;;;;17.20;100.00;101524.34;5072310;28;20048;-58
2021/07/15 03:47:44;;;;;;;17.08;7.07;;;;;;;17.19;100.00;101531.13;5072212;28;20052;-55
2021/07/15 03:50:13;;;;;;;17.92;6.53;;;;;;;17.15;100.00;101532.13;5071655;28;20082;-55
2021/07/15 03:52:46;;;;;;;17.63;6.93;;;;;;;17.16;100.00;101540.28;5072548;28;20040;-56
2021/07/15 03:55:17;;;;;;;16.02;6.57;;;;;;;17.16;100.00;101543.09;5070797;28;20059;-54
2021/07/15 03:57:46;;;;;;;18.10;6.43;;;;;;;17.18;100.00;101542.78;5072295;28;20473;-58
2021/07/15 04:00:15;;;;;;;20.58;6.80;;;;;;;17.20;100.00;101546.91;5072447;28;20052;-54
2021/07/15 04:02:43;;;;;;;23.52;6.53;;;;;;;17.20;100.00;101546.06;5071793;28;20052;-57
2021/07/15 04:05:14;;;;;;;18.65;6.65;;;;;;;17.18;100.00;101548.41;5072633;28;20473;-57
2021/07/15 04:07:43;;;;;;;19.45;6.47;;;;;;;17.18;100.00;101551.22;5072292;28;20036;-59
2021/07/15 04:10:13;;;;;;;17.95;6.53;;;;;;;17.16;100.00;101553.56;5070752;28;20090;-58
2021/07/15 04:12:42;;;;;;;15.98;7.13;;;;;;;17.18;100.00;101557.72;5071019;28;20280;-56
2021/07/15 04:15:12;;;;;;;20.58;7.13;;;;;;;17.19;100.00;101556.53;5072043;28;20045;-52
2021/07/15 04:17:47;;;;;;;19.05;7.20;;;;;;;17.21;100.00;101556.19;5071687;28;20056;-54
2021/07/15 04:20:16;;;;;;;18.42;8.15;;;;;;;17.20;100.00;101568.63;5072377;28;20049;-60
2021/07/15 04:22:46;;;;;;;18.55;7.40;;;;;;;17.19;100.00;101575.44;5072017;28;20052;-56
2021/07/15 04:25:17;;;;;;;14.80;7.63;;;;;;;17.18;100.00;101577.44;5071743;28;20074;-58
2021/07/15 04:27:50;;;;;;;13.47;6.97;;;;;;;17.17;100.00;101566.50;5071867;28;20064;-53
2021/07/15 04:30:19;;;;;;;18.35;7.07;;;;;;;17.16;100.00;101574.13;5071581;28;20106;-56
2021/07/15 04:32:49;;;;;;;13.55;7.00;;;;;;;17.17;100.00;101578.59;5071931;28;20574;-58
2021/07/15 04:35:17;;;;;;;14.43;6.97;;;;;;;17.19;100.00;101579.09;5071779;28;20037;-59
2021/07/15 04:37:46;;;;;;;18.33;6.82;;;;;;;17.21;100.00;101579.59;5071277;28;20080;-57
2021/07/15 04:40:19;;;;;;;17.92;7.80;;;;;;;17.25;100.00;101587.41;5071518;28;20071;-56
2021/07/15 04:42:52;;;;;;;17.20;8.02;;;;;;;17.26;100.00;101578.63;5072002;28;20051;-57
2021/07/15 04:45:23;;;;;;;16.73;7.20;;;;;;;17.27;100.00;101580.28;5070621;28;20493;-56
2021/07/15 04:47:51;;;;;;;16.85;7.22;;;;;;;17.29;100.00;101583.63;5071725;28;20498;-56
2021/07/15 04:50:20;;;;;;;18.67;7.10;;;;;;;17.31;100.00;101581.28;5071501;28;20087;-51
2021/07/15 04:52:50;;;;;;;19.00;7.20;;;;;;;17.31;100.00;101595.41;5070098;28;20044;-52
2021/07/15 04:55:21;;;;;;;18.05;7.82;;;;;;;17.33;100.00;101607.19;5071580;28;20135;-56
2021/07/15 04:57:51;;;;;;;20.88;7.32;;;;;;;17.31;100.00;101601.03;5071418;28;20036;-55
2021/07/15 05:00:19;;;;;;;15.13;6.38;;;;;;;17.31;100.00;101598.22;5070762;28;20041;-55
2021/07/15 05:02:51;;;;;;;15.93;6.72;;;;;;;17.31;100.00;101588.94;5071325;28;20063;-53
2021/07/15 05:05:21;;;;;;;14.50;6.60;;;;;;;17.33;100.00;101598.72;5071027;28;20055;-58
2021/07/15 05:07:49;;;;;;;19.08;7.22;;;;;;;17.33;100.00;101584.63;5071445;28;20052;-58
2021/07/15 05:10:17;;;;;;;14.52;6.93;;;;;;;17.35;100.00;101579.50;5069944;28;20494;-55
2021/07/15 05:12:48;;;;;;;17.33;6.60;;;;;;;17.35;100.00;101587.97;5070988;28;20068;-59
2021/07/15 05:15:17;;;;;;;20.02;6.97;;;;;;;17.37;100.00;101580.00;5071188;28;20087;-56
2021/07/15 05:17:45;;;;;;;19.60;7.07;;;;;;;17.41;100.00;101577.31;5070938;28;20135;-56
2021/07/15 05:20:13;;;;;;;14.38;7.53;;;;;;;17.44;100.00;101577.50;5070909;28;20048;-56
2021/07/15 05:22:41;;;;;;;13.38;6.47;;;;;;;17.48;100.00;101588.97;5070983;28;20052;-53
2021/07/15 05:25:10;;;;;;;17.50;6.63;;;;;;;17.51;99.99;101580.69;5071199;28;20070;-60
2021/07/15 05:27:39;;;;;;;17.92;6.97;;;;;;;17.54;99.62;101574.38;5070494;28;20167;-54
2021/07/15 05:30:08;;;;;;;21.70;7.15;;;;;;;17.60;99.53;101571.38;5071027;28;20451;-58
2021/07/15 05:32:37;;;;;;;14.93;7.15;;;;;;;17.61;99.44;101571.06;5070815;28;20143;-56
2021/07/15 05:35:06;;;;;;;18.27;7.32;;;;;;;17.62;99.35;101564.25;5070384;28;20088;-57
2021/07/15 05:37:34;;;;;;;16.98;7.05;;;;;;;17.64;99.27;101581.72;5069837;28;20053;-53
2021/07/15 05:40:03;;;;;;;15.90;7.47;;;;;;;17.66;99.22;101575.75;5070803;28;20127;-55
2021/07/15 05:42:31;;;;;;;20.38;7.88;;;;;;;17.65;98.67;101579.75;5070380;28;20075;-57
2021/07/15 05:44:59;;;;;;;16.67;6.93;;;;;;;17.66;98.90;101585.06;5070674;28;20080;-55
2021/07/15 05:47:27;;;;;;;18.48;7.15;;;;;;;17.65;98.58;101602.31;5070608;28;20474;-54
2021/07/15 05:49:56;;;;;;;16.38;7.05;;;;;;;17.64;98.76;101601.50;5070762;28;20079;-57
2021/07/15 05:52:24;;;;;;;16.60;6.65;;;;;;;17.65;98.46;101596.69;5070428;28;20470;-56
2021/07/15 05:54:56;;;;;;;18.15;6.78;;;;;;;17.64;98.36;101587.38;5070101;28;20127;-57
2021/07/15 05:57:25;;;;;;;16.30;6.95;;;;;;;17.68;98.29;101584.72;5070560;28;20060;-56
2021/07/15 05:59:53;;;;;;;15.45;7.22;;;;;;;17.71;98.26;101589.72;5070951;28;20071;-56
2021/07/15 06:02:20;;;;;;;15.07;6.65;;;;;;;17.69;97.62;101587.22;5070210;28;20189;-60
2021/07/15 06:04:48;;;;;;;17.85;7.68;;;;;;;17.69;97.37;101611.81;5073126;28;20063;-54
2021/07/15 06:07:17;;;;;;;11.52;6.10;;;;;;;17.70;97.38;101621.94;5074835;28;20036;-52
2021/07/15 06:09:45;;;;;;;17.00;6.80;;;;;;;17.72;96.95;101625.25;5074115;28;20489;-60
2021/07/15 06:12:13;;;;;;;17.45;7.25;;;;;;;17.75;97.05;101622.63;5074790;28;20078;-56
2021/07/15 06:14:41;;;;;;;19.48;7.47;;;;;;;17.80;97.01;101633.72;5074580;28;20072;-56
2021/07/15 06:17:08;;;;;;;18.65;7.80;;;;;;;17.82;96.82;101634.22;5072800;28;20056;-51
2021/07/15 06:19:36;;;;;;;19.25;7.38;;;;;;;17.88;96.74;101638.56;5074386;28;20046;-56
2021/07/15 06:22:04;;;;;;;20.33;6.88;;;;;;;17.92;96.50;101652.03;5074164;28;20489;-56
2021/07/15 06:24:34;;;;;;;18.08;6.93;;;;;;;17.91;96.38;101648.38;5073703;28;20040;-54
2021/07/15 06:27:02;;;;;;;13.38;7.22;;;;;;;17.88;96.28;101649.03;5074222;28;20127;-56
2021/07/15 06:29:30;;;;;;;15.30;6.70;;;;;;;17.88;96.09;101651.84;5074435;28;20056;-61
2021/07/15 06:31:58;;;;;;;15.48;6.43;;;;;;;17.85;95.49;101650.53;5073634;28;20067;-57
2021/07/15 06:34:27;;;;;;;12.43;6.63;;;;;;;17.84;95.05;101668.63;5074137;28;20045;-60
2021/07/15 06:36:55;;;;;;;15.13;6.80;;;;;;;17.83;94.61;101657.66;5073164;28;20809;-56
2021/07/15 06:39:22;;;;;;;17.30;7.10;;;;;;;17.84;94.21;101664.97;5073869;28;20044;-55
2021/07/15 06:41:53;;;;;;;14.63;6.63;;;;;;;17.84;94.07;101657.34;5073930;28;20061;-53
2021/07/15 06:44:22;;;;;;;15.35;6.13;;;;;;;17.87;94.59;101662.31;5073507;28;20086;-52
2021/07/15 06:46:50;;;;;;;12.07;6.57;;;;;;;17.88;94.24;101658.34;5073802;28;20132;-54
2021/07/15 06:49:17;;;;;;;15.95;7.25;;;;;;;17.91;94.35;101670.97;5073889;28;20067;-55
2021/07/15 06:51:45;;;;;;;18.92;7.35;;;;;;;17.92;94.65;101668.97;5073119;28;20503;-61
2021/07/15 06:54:13;;;;;;;17.80;7.63;;;;;;;17.92;94.70;101666.16;5073934;28;20405;-56
2021/07/15 06:56:43;;;;;;;14.55;6.20;;;;;;;17.95;94.71;101669.16;5073535;28;20076;-60
2021/07/15 06:59:12;;;;;;;14.27;6.55;;;;;;;18.00;94.69;101665.31;5073142;28;20127;-57
2021/07/15 07:01:40;;;;;;;17.67;6.78;;;;;;;18.02;94.52;101661.00;5073431;28;20139;-58
2021/07/15 07:04:08;;;;;;;18.52;6.22;;;;;;;18.04;94.49;101655.03;5073648;28;20036;-53
2021/07/15 07:06:35;;;;;;;15.35;7.00;;;;;;;18.08;94.46;101659.69;5071874;28;20044;-59
2021/07/15 07:09:03;;;;;;;12.25;6.43;;;;;;;18.10;94.16;101660.22;5073291;28;20129;-52
2021/07/15 07:11:31;;;;;;;11.48;6.03;;;;;;;18.14;93.88;101668.84;5073397;28;20040;-51
2021/07/15 07:13:59;;;;;;;18.33;7.43;;;;;;;18.14;94.13;101674.50;5073077;28;20048;-52
2021/07/15 07:16:28;;;;;;;16.45;7.28;;;;;;;18.14;93.78;101675.34;5072480;28;20411;-56
2021/07/15 07:18:56;;;;;;;15.20;7.45;;;;;;;18.17;93.96;101666.22;5072214;28;20512;-56
2021/07/15 07:21:31;;;;;;;16.40;6.63;;;;;;;18.20;94.13;101670.34;5072261;28;20045;-57
2021/07/15 07:23:59;;;;;;;15.57;6.95;;;;;;;18.21;93.68;101672.84;5069806;28;20037;-60
2021/07/15 07:26:26;;;;;;;14.35;6.22;;;;;;;18.23;93.05;101681.81;5072589;28;20075;-56
2021/07/15 07:28:54;;;;;;;16.27;6.28;;;;;;;18.27;93.31;101669.84;5069740;28;20052;-53
2021/07/15 07:31:22;;;;;;;12.20;6.07;;;;;;;18.28;93.08;101689.31;5073121;28;20048;-59
2021/07/15 07:33:51;;;;;;;17.58;7.20;;;;;;;18.29;92.70;101695.78;5072477;28;20838;-55
2021/07/15 07:36:19;;;;;;;14.38;6.88;;;;;;;18.30;93.17;101701.09;5072554;28;20075;-56
2021/07/15 07:38:47;;;;;;;17.40;7.47;;;;;;;18.35;92.71;101705.78;5073007;28;20479;-56
2021/07/15 07:41:15;;;;;;;16.50;6.60;;;;;;;18.41;93.14;101702.44;5072292;28;20500;-58
2021/07/15 07:43:43;;;;;;;11.57;6.55;;;;;;;18.42;92.52;101701.25;5072402;28;20049;-60
2021/07/15 07:46:11;;;;;;;12.30;6.88;;;;;;;18.42;92.26;101711.75;5072916;28;20037;-61
2021/07/15 07:48:39;;;;;;;15.65;5.72;;;;;;;18.40;91.71;101711.25;5072074;28;20056;-59
2021/07/15 07:51:12;;;;;;;10.73;6.20;;;;;;;18.38;91.77;101713.59;5072874;28;20037;-61
2021/07/15 07:53:40;;;;;;;12.93;6.47;;;;;;;18.37;91.52;101709.09;5072556;28;20131;-55
2021/07/15 07:56:08;;;;;;;13.65;6.22;;;;;;;18.41;91.46;101693.94;5071761;28;20040;-54
2021/07/15 07:58:36;;;;;;;16.15;6.85;;;;;;;18.48;91.37;101704.78;5072103;28;20068;-56
2021/07/15 08:01:04;;;;;;;16.15;7.28;;;;;;;18.56;91.47;101712.44;5072613;28;20078;-56
2021/07/15 08:03:32;;;;;;;13.35;6.82;;;;;;;18.72;90.59;101712.78;5061313;28;20033;-57
2021/07/15 08:06:00;;;;;;;10.05;6.68;;;;;;;18.87;89.94;101713.09;5072151;28;20139;-58
2021/07/15 08:08:30;;;;;;;13.88;6.47;;;;;;;19.06;89.71;101726.88;5071455;28;20565;-62
2021/07/15 08:10:58;;;;;;;14.60;6.65;;;;;;;19.20;89.23;101716.19;5072487;28;20459;-54
2021/07/15 08:13:25;;;;;;;14.98;6.75;;;;;;;19.29;88.53;101721.84;5068434;28;20102;-57
2021/07/15 08:15:53;;;;;;;11.52;6.25;;;;;;;19.32;88.11;101726.00;5071227;28;20108;-57
2021/07/15 08:18:23;;;;;;;12.55;6.65;;;;;;;19.30;88.03;101734.81;5071974;28;20048;-56
2021/07/15 08:20:51;;;;;;;15.45;6.93;;;;;;;19.30;88.51;101729.16;5072528;28;20123;-59
2021/07/15 08:23:19;;;;;;;16.70;7.05;;;;;;;19.29;88.05;101730.31;5070750;28;20656;-55
2021/07/15 08:25:48;;;;;;;14.18;6.70;;;;;;;19.26;88.37;101728.16;5071897;28;20073;-54
2021/07/15 08:28:16;;;;;;;14.20;6.57;;;;;;;19.22;88.07;101744.97;5071643;28;20045;-57
2021/07/15 08:30:44;;;;;;;13.15;6.35;;;;;;;19.22;88.38;101744.16;5067365;28;20497;-58
2021/07/15 08:33:12;;;;;;;11.55;6.40;;;;;;;19.26;87.59;101739.47;5071717;28;20051;-59
2021/07/15 08:35:39;;;;;;;9.40;5.97;;;;;;;19.29;87.52;101752.97;5071606;28;20549;-57
2021/07/15 08:38:10;;;;;;;17.55;6.65;;;;;;;19.32;87.06;101765.63;5071301;28;20070;-56
2021/07/15 08:40:38;;;;;;;12.52;6.75;;;;;;;19.28;87.44;101773.94;5071786;28;20044;-60
2021/07/15 08:43:08;;;;;;;13.20;6.05;;;;;;;19.27;87.54;101783.59;5071565;28;20135;-61
2021/07/15 08:45:36;;;;;;;14.13;6.38;;;;;;;19.21;87.54;101782.09;5070949;28;20119;-57
2021/07/15 08:48:08;;;;;;;17.50;7.22;;;;;;;19.17;88.14;101786.78;5071412;28;20041;-51
2021/07/15 08:50:36;;;;;;;13.38;6.53;;;;;;;19.17;88.26;101783.97;5071337;28;20080;-52
2021/07/15 08:53:04;;;;;;;10.75;6.35;;;;;;;19.23;88.60;101782.59;5071358;28;20055;-57
2021/07/15 08:58:22;;;;;;;13.43;7.13;;;;;;;19.31;88.53;101778.09;5041229;28;20190;-56
2021/07/15 09:00:50;;;;;;;16.85;6.90;;;;;;;19.37;88.63;101777.59;5071321;28;20048;-63
2021/07/15 09:03:18;;;;;;;11.88;6.40;;;;;;;19.40;87.92;101776.91;5071367;28;20063;-53
2021/07/15 09:05:46;;;;;;;14.80;6.53;;;;;;;19.41;87.63;101781.41;5070639;28;20059;-57
2021/07/15 09:08:14;;;;;;;11.25;5.82;;;;;;;19.37;86.79;101783.25;5071115;28;20549;-61
2021/07/15 09:10:42;;;;;;;12.77;5.85;;;;;;;19.34;86.26;101783.09;5069317;28;20075;-55
2021/07/15 09:13:11;;;;;;;14.05;6.45;;;;;;;19.28;85.99;101786.09;5068224;28;20070;-58
2021/07/15 09:15:47;;;;;;;12.30;6.03;;;;;;;19.29;86.00;101786.94;5069785;28;20401;-57
2021/07/15 09:18:16;;;;;;;12.13;6.25;;;;;;;19.34;86.39;101798.06;5071059;28;20087;-57
2021/07/15 09:20:45;;;;;;;14.93;5.80;;;;;;;19.36;86.32;101787.25;5070346;28;20489;-61
2021/07/15 09:23:15;;;;;;;10.55;5.65;;;;;;;19.40;85.96;101805.22;5067852;28;20551;-59
2021/07/15 09:25:57;;;;;;;12.88;6.00;;;;;;;19.39;85.74;101799.88;5068712;28;20579;-55
2021/07/15 09:28:31;;;;;;;13.10;6.72;;;;;;;19.38;85.54;101795.41;5068749;28;20131;-57
2021/07/15 09:31:19;;;;;;;12.40;5.90;;;;;;;19.37;85.47;101793.75;5070516;28;20283;-57
2021/07/15 09:33:48;;;;;;;12.32;6.07;;;;;;;19.36;85.94;101804.25;5069107;28;20128;-58
2021/07/15 09:36:19;;;;;;;11.90;6.18;;;;;;;19.36;86.00;101797.75;5070410;28;20094;-57
2021/07/15 09:38:48;;;;;;;14.70;6.17;;;;;;;19.34;85.74;101808.56;5070673;28;20041;-54
2021/07/15 09:41:17;;;;;;;9.80;5.80;;;;;;;19.32;85.50;101808.91;5070078;28;20490;-56
2021/07/15 09:43:46;;;;;;;11.98;5.80;;;;;;;19.38;85.98;101807.56;5069868;28;20110;-54
2021/07/15 09:46:24;;;;;;;11.35;5.07;;;;;;;19.49;85.41;101808.88;5070132;28;20052;-55
2021/07/15 09:49:04;;;;;;;11.88;5.60;;;;;;;19.56;84.99;101819.72;5069271;28;20094;-51
2021/07/15 09:51:40;;;;;;;9.20;4.97;;;;;;;19.58;85.47;101818.19;5070039;28;20044;-51
2021/07/15 09:54:09;;;;;;;15.75;6.03;;;;;;;19.59;85.30;101825.50;5068419;28;20509;-54
2021/07/15 09:56:45;;;;;;;15.25;5.55;;;;;;;19.55;84.93;101821.72;5070248;28;20049;-56
2021/07/15 09:59:13;;;;;;;9.27;5.28;;;;;;;19.49;84.52;101825.84;5069692;28;20044;-59
2021/07/15 10:01:47;;;;;;;10.82;5.43;;;;;;;19.43;84.36;101821.53;5069160;28;20403;-55
2021/07/15 10:04:22;;;;;;;10.98;5.47;;;;;;;19.43;84.80;101815.03;5069348;28;20044;-60
2021/07/15 10:06:54;;;;;;;11.10;5.07;;;;;;;19.47;84.66;101828.19;5070677;28;20053;-52
2021/07/15 10:09:23;;;;;;;11.00;5.40;;;;;;;19.47;84.95;101830.19;5069698;28;20060;-56
2021/07/15 10:11:54;;;;;;;9.05;5.15;;;;;;;19.49;84.36;101827.84;5069632;28;20044;-56
2021/07/15 10:14:36;;;;;;;;;;;;;;;19.40;82.86;101827.03;5070590;28;20135;-62
2021/07/15 10:17:06;;;;;;;11.23;5.25;;;;;;;19.52;84.51;101822.38;5069802;28;19927;-56
2021/07/15 10:19:34;;;;;;;13.70;5.57;;;;;;;19.66;84.47;101822.16;5070494;28;20087;-55
2021/07/15 10:22:07;;;;;;;12.18;5.43;;;;;;;19.77;84.35;101823.50;5069298;28;20040;-58
2021/07/15 10:24:36;;;;;;;12.48;5.03;;;;;;;19.83;84.26;101829.78;5070023;28;20081;-50
2021/07/15 10:27:09;;;;;;;9.93;4.93;;;;;;;19.87;84.10;101827.94;5065367;28;20375;-54
2021/07/15 10:29:37;;;;;;;10.20;5.13;;;;;;;19.89;83.64;101828.44;5070076;28;20072;-57
2021/07/15 10:32:09;;;;;;;9.85;5.30;;;;;;;19.90;83.48;101825.25;5070332;28;20059;-54
2021/07/15 10:34:38;;;;;;;11.35;4.82;;;;;;;19.95;83.14;101818.59;5070117;28;20095;-55
2021/07/15 10:37:06;;;;;;;11.38;5.50;;;;;;;20.00;82.75;101818.38;5069640;28;20049;-56
2021/07/15 10:39:37;;;;;;;9.88;5.00;;;;;;;20.08;82.39;101825.19;5070358;28;20513;-56
2021/07/15 10:42:07;;;;;;;12.38;5.18;;;;;;;20.12;82.04;101821.34;5070287;28;20043;-58
2021/07/15 10:44:35;;;;;;;11.25;5.32;;;;;;;20.19;82.22;101815.94;5069470;28;20440;-53
2021/07/15 10:47:04;;;;;;;10.57;4.78;;;;;;;20.27;82.02;101809.41;5070436;28;20393;-59
2021/07/15 10:49:37;;;;;;;8.90;4.80;;;;;;;20.29;81.40;101809.91;5070086;28;20041;-57
2021/07/15 10:52:08;;;;;;;11.98;5.00;;;;;;;20.25;81.45;101813.75;5072331;28;20485;-56
2021/07/15 10:54:38;;;;;;;9.52;4.63;;;;;;;20.28;81.20;101811.09;5073617;28;20097;-53
2021/07/15 10:57:08;;;;;;;9.60;5.03;;;;;;;20.33;81.18;101812.06;5069446;28;20075;-57
2021/07/15 10:59:36;;;;;;;10.37;4.97;;;;;;;20.32;81.13;101813.22;5073696;28;20053;-57
2021/07/15 11:02:20;;;;;;;10.52;4.78;;;;;;;20.30;80.38;101814.41;5072200;28;20041;-57
2021/07/15 11:04:50;;;;;;;10.45;4.63;;;;;;;20.32;81.05;101825.41;5064052;28;20049;-56
2021/07/15 11:07:22;;;;;;;11.25;4.70;;;;;;;20.32;80.60;101819.75;5073596;28;20143;-58
2021/07/15 11:09:51;;;;;;;8.45;3.95;;;;;;;20.31;80.84;101818.06;5073487;28;20097;-56
2021/07/15 11:12:32;;;;;;;9.40;4.35;;;;;;;20.30;80.88;101810.75;5072777;28;20541;-55
2021/07/15 11:15:05;;;;;;;9.95;4.35;;;;;;;20.26;81.02;101819.09;5063010;28;20078;-57
2021/07/15 11:17:35;;;;;;;10.20;4.97;;;;;;;20.29;80.59;101820.41;5073529;28;20044;-57
2021/07/15 11:20:10;;;;;;;9.10;4.25;;;;;;;20.27;80.57;101819.91;5072593;28;20052;-57
2021/07/15 11:22:47;;;;;;;11.88;4.70;;;;;;;20.25;80.21;101830.78;5062472;28;20094;-58
2021/07/15 11:25:17;;;;;;;8.73;4.47;;;;;;;20.20;79.91;101840.28;5061733;28;20452;-58
2021/07/15 11:27:51;;;;;;;9.23;4.18;;;;;;;20.15;79.38;101839.66;5061808;28;20521;-56
2021/07/15 11:30:44;;;;;;;10.27;4.65;;;;;;;20.11;78.56;101841.50;5073084;28;20504;-61